Latest Coastal Weather Observations for Maningrida Airport

IDD60701

Issued at 4:55 am CST Saturday 1 November 2014 (issued every 10 minutes, with the page automatically refreshed every 10 minutes)

About coastal observations | Map of coastal stations | Coastal observations for NT | Marine services | Other Formats
Station Details ID: 014405 Name: MANINGRIDA AIRPORT Lat: -12.06 Lon: 134.23 Height: 28.1 m
Data from the previous 72 hours. | See also: Recent months at Maningrida Airport
Date/Time
CST
Temp

°C
Wind Pressure Rain
since 9am
mm
Weather Cloud Vis
km
Sea
Height
m
Swell
Dir
 
Speed
knots
Gust
knots
hPa Trend Height
m
Period
s
Dir
01/04:30am 21.1 SSE 5 6 1009.4 - 0.0 - - 10 - - - -
01/04:00am 20.7 SSW 3 5 1008.9 - 0.0 - - 10 - - - -
01/03:30am 20.8 SSW 3 4 1008.7 - 0.0 - - 10 - - - -
01/03:00am 21.3 SSW 4 5 1008.5 - 0.0 - - 10 - - - -
01/02:30am 21.3 SSW 3 4 1008.5 - 0.0 - - 10 - - - -
01/02:00am 21.4 SSW 3 5 1008.8 - 0.0 - - 10 - - - -
01/01:30am 21.5 NW 4 4 1008.9 - 0.0 - - 10 - - - -
01/01:00am 23.1 N 3 4 1008.9 - 0.0 - - 10 - - - -
01/12:30am 23.0 N 3 4 1009.3 - 0.0 - - 10 - - - -
01/12:00am 23.1 N 3 4 1009.5 - 0.0 - - 10 - - - -
 
Date/Time
CST
Temp

°C
Wind Pressure Rain
since 9am
mm
Weather Cloud Vis
km
Sea
Height
m
Swell
Dir
 
Speed
knots
Gust
knots
hPa Trend Height
m
Period
s
Dir
31/11:30pm 23.0 N 3 4 1009.7 - 0.0 - - 10 - - - -
31/11:00pm 23.1 N 3 4 1009.8 - 0.0 - - 10 - - - -
31/10:30pm 23.3 N 3 4 1009.9 - 0.0 - - 10 - - - -
31/10:00pm 24.0 N 3 3 1009.7 - 0.0 - - 10 - - - -
31/09:45pm 24.2 N 3 4 1009.6 - 0.0 - - 10 - - - -
31/09:30pm 24.8 N 3 4 1009.6 - 0.0 - - 5 - - - -
31/09:28pm 25.0 N 3 4 1009.6 - 0.0 - - 5 - - - -
31/09:00pm 26.5 N 6 8 1009.2 - 0.0 - - 10 - - - -
31/08:30pm 26.7 N 7 10 1008.8 - 0.0 - - 10 - - - -
31/08:00pm 26.5 N 6 9 1008.6 - 0.0 - - 10 - - - -
31/07:30pm 26.7 N 6 8 1008.4 - 0.0 - - 10 - - - -
31/07:00pm 27.0 N 8 12 1008.3 - 0.0 - - 10 - - - -
31/06:30pm 27.1 N 7 9 1008.0 - 0.0 - - 10 - - - -
31/06:00pm 27.6 N 8 11 1008.0 - 0.0 - - 10 - - - -
31/05:30pm 28.3 N 8 11 1007.8 - 0.0 - - 10 - - - -
31/05:00pm 28.7 N 8 11 1007.8 - 0.0 - - 10 - - - -
31/04:30pm 29.1 N 9 11 1007.9 - 0.0 - - 10 - - - -
31/04:00pm 29.5 N 8 12 1008.0 - 0.0 - - 10 - - - -
31/03:30pm 30.1 N 10 14 1008.2 - 0.0 - - 10 - - - -
31/03:00pm 29.4 N 9 13 1008.2 - 0.0 - - 10 - - - -
31/02:30pm 29.3 N 10 14 1008.5 - 0.0 - - 10 - - - -
31/02:00pm 30.4 N 10 13 1008.7 - 0.0 - - 10 - - - -
31/01:30pm 29.5 N 11 15 1009.2 - 0.0 - - 10 - - - -
31/01:00pm 29.9 N 11 15 1009.6 - 0.0 - - 10 - - - -
31/12:30pm 29.8 N 12 15 1009.9 - 0.0 - - 10 - - - -
31/12:00pm 29.7 N 9 13 1010.1 - 0.0 - - 10 - - - -
31/11:30am 29.0 N 9 12 1010.6 - 0.0 - - 10 - - - -
31/11:00am 29.0 N 9 16 1011.1 - 0.0 - - 10 - - - -
31/10:30am 29.4 N 9 12 1011.3 - 0.0 - - 10 - - - -
31/10:00am 29.4 N 9 14 1011.5 - 0.0 - - 10 - - - -
31/09:30am 28.7 N 9 12 1011.8 - 0.0 - - 10 - - - -
31/09:00am 28.1 N 8 11 1011.8 - 0.0 - Mostly clear 10 - - - -
31/08:30am 28.0 NNE 9 11 1011.6 - 0.0 - Partly cloudy 10 - - - -
31/08:00am 27.3 NE 7 9 1011.2 - 0.0 - - 10 - - - -
31/07:30am 26.3 ENE 3 4 1011.0 - 0.0 - Partly cloudy 10 - - - -
31/07:00am 23.4 CALM 0 0 1010.6 - 0.0 - Partly cloudy 10 - - - -
31/06:30am 21.4 S 3 5 1010.1 - 0.0 - Partly cloudy 10 - - - -
31/06:00am 20.8 CALM 0 0 1009.7 - 0.0 - Mostly clear 10 - - - -
31/05:30am 21.0 CALM 0 0 1009.4 - 0.0 - - 10 - - - -
31/05:00am 21.0 SW 3 4 1009.3 - 0.0 - Partly cloudy 10 - - - -
31/04:30am 20.9 CALM 0 2 1009.0 - 0.0 - Partly cloudy 10 - - - -
31/04:00am 21.6 SE 3 4 1008.6 - 0.0 - - 10 - - - -
31/03:30am 21.9 SE 4 5 1008.5 - 0.0 - - 8 - - - -
31/03:00am 22.0 SE 4 4 1008.4 - 0.0 - - 10 - - - -
31/02:30am 22.1 SE 4 4 1008.6 - 0.0 - - 9 - - - -
31/02:20am 22.1 SE 4 4 1008.6 - 0.0 - - 8 - - - -
31/02:04am 22.5 SE 3 4 1008.7 - 0.0 - - 5 - - - -
31/02:00am 22.6 SE 3 3 1008.8 - 0.0 - - 8 - - - -
31/01:45am 22.8 SE 3 3 1008.8 - 0.0 - - 8 - - - -
31/01:35am 22.9 SE 3 4 1008.9 - 0.0 - - 5 - - - -
31/01:30am 23.0 SE 3 4 1008.9 - 0.0 - - 6 - - - -
31/01:00am 23.1 SE 4 4 1009.0 - 0.0 - - 9 - - - -
31/12:30am 23.5 ESE 4 4 1009.2 - 0.0 - - 10 - - - -
31/12:00am 23.9 CALM 0 0 1009.4 - 0.0 - - 10 - - - -
 
Date/Time
CST
Temp

°C
Wind Pressure Rain
since 9am
mm
Weather Cloud Vis
km
Sea
Height
m
Swell
Dir
 
Speed
knots
Gust
knots
hPa Trend Height
m
Period
s
Dir
30/11:30pm 24.1 CALM 0 2 1009.6 - 0.0 - - 10 - - - -
30/11:00pm 25.4 NE 3 4 1009.7 - 0.0 - - 10 - - - -
30/10:30pm 25.5 NE 3 5 1009.8 - 0.0 - - 10 - - - -
30/10:00pm 25.6 NE 4 5 1009.7 - 0.0 - - 10 - - - -
30/09:30pm 26.0 NNE 1 3 1009.4 - 0.0 - - 10 - - - -
30/09:00pm 26.5 NNE 4 6 1008.9 - 0.0 - - 10 - - - -
30/08:30pm 26.7 N 5 7 1008.7 - 0.0 - - 10 - - - -
30/08:00pm 26.6 N 5 7 1008.5 - 0.0 - - 10 - - - -
30/07:30pm 27.0 N 5 7 1008.4 - 0.0 - - 10 - - - -
30/07:00pm 27.2 N 5 7 1008.3 - 0.0 - - 10 - - - -
30/06:30pm 27.5 N 6 8 1008.2 - 0.0 - - 10 - - - -
30/06:00pm 27.9 N 8 11 1008.1 - 0.0 - - 10 - - - -
30/05:30pm 28.8 N 9 12 1008.0 - 0.0 - - 10 - - - -
30/05:00pm 29.1 N 11 14 1007.8 - 0.0 - - 10 - - - -
30/04:30pm 29.0 N 11 14 1007.9 - 0.0 - - 10 - - - -
30/04:00pm 29.9 N 11 14 1007.9 - 0.0 - - 10 - - - -
30/03:30pm 29.4 N 11 15 1008.2 - 0.0 - - 10 - - - -
30/03:00pm 29.6 N 11 15 1008.4 - 0.0 - Mostly clear 10 - - - -
30/02:30pm 29.9 N 10 14 1008.6 - 0.0 - - 10 - - - -
30/02:00pm 30.5 N 10 14 1008.8 - 0.0 - - 10 - - - -
30/01:30pm 30.3 N 11 14 1009.3 - 0.0 - - 10 - - - -
30/01:00pm 29.3 N 11 16 1009.8 - 0.0 - - 10 - - - -
30/12:30pm 29.7 N 11 14 1010.2 - 0.0 - - 10 - - - -
30/12:00pm 29.0 N 10 15 1010.6 - 0.0 - Mostly clear 10 - - - -
30/11:30am 29.0 N 10 14 1010.9 - 0.0 - - 10 - - - -
30/11:00am 29.4 N 10 13 1011.2 - 0.0 - - 10 - - - -
30/10:30am 28.7 N 10 14 1011.5 - 0.0 - - 10 - - - -
30/10:00am 28.7 NNW 9 13 1011.7 - 0.0 - Partly cloudy 10 - - - -
30/09:30am 27.9 NNW 9 12 1011.8 - 0.0 - - 10 - - - -
30/09:00am 27.9 NW 8 11 1011.9 - 0.0 - Mostly clear 10 - - - -
30/08:30am 28.2 NNW 5 10 1011.8 - 0.0 - Partly cloudy 10 - - - -
30/08:00am 26.5 NW 2 4 1011.5 - 0.0 - - 10 - - - -
30/07:30am 25.1 SSW 2 3 1011.2 - 0.0 - - 10 - - - -
30/07:00am 23.2 CALM 0 1 1011.0 - 0.0 - - 10 - - - -
30/06:30am 20.8 S 3 5 1010.6 - 0.0 - - 10 - - - -
30/06:00am 20.3 SSW 4 5 1010.1 - 0.0 - - 10 - - - -
30/05:30am 20.3 S 3 4 1010.0 - 0.0 - - 10 - - - -
30/05:00am 20.5 S 3 4 1009.8 - 0.0 - - 10 - - - -
30/04:30am 20.8 SSW 4 5 1009.7 - 0.0 - - 10 - - - -
30/04:00am 21.0 S 3 5 1009.7 - 0.0 - - 10 - - - -
30/03:30am 21.2 S 4 5 1009.7 - 0.0 - - 10 - - - -
30/03:00am 21.2 SSE 2 5 1009.8 - 0.0 - - 9 - - - -
30/02:51am 21.0 CALM 0 0 1009.8 - 0.0 - - 10 - - - -
30/02:34am 20.9 SSE 1 3 1009.8 - 0.0 - - 5 - - - -
30/02:30am 20.9 SSE 1 3 1009.8 - 0.0 - - 10 - - - -
30/02:00am 21.7 SSE 4 5 1010.1 - 0.0 - - 10 - - - -
30/01:30am 22.3 SE 3 4 1010.4 - 0.0 - - 10 - - - -
30/01:00am 22.5 SE 2 4 1010.4 - 0.0 - - 10 - - - -
30/12:30am 23.0 SE 3 4 1010.7 - 0.0 - - 10 - - - -
30/12:00am 23.6 ENE 3 3 1010.9 - 0.0 - - 10 - - - -
 
Date/Time
CST
Temp

°C
Wind Pressure Rain
since 9am
mm
Weather Cloud Vis
km
Sea
Height
m
Swell
Dir
 
Speed
knots
Gust
knots
hPa Trend Height
m
Period
s
Dir
29/11:30pm 24.3 ENE 3 5 1011.2 - 0.0 - - 10 - - - -
29/11:00pm 23.8 ESE 3 4 1011.5 - 0.0 - - 10 - - - -
29/10:30pm 24.1 SE 3 4 1011.6 - 0.0 - - 10 - - - -
29/10:00pm 24.5 CALM 0 0 1011.4 - 0.0 - - 9 - - - -
29/09:48pm 24.7 CALM 0 0 1011.3 - 0.0 - - 10 - - - -
29/09:32pm 24.7 CALM 0 0 1011.2 - 0.0 - - 5 - - - -
29/09:30pm 24.7 CALM 0 0 1011.1 - 0.0 - - 6 - - - -
29/09:00pm 26.1 NE 2 4 1010.9 - 0.0 - - 10 - - - -
29/08:30pm 26.2 NNE 4 5 1010.7 - 0.0 - - 10 - - - -
29/08:00pm 26.5 NNE 4 6 1010.5 - 0.0 - - 10 - - - -
29/07:30pm 26.8 NNE 5 7 1010.1 - 0.0 - - 10 - - - -
29/07:00pm 27.2 NNE 6 8 1009.9 - 0.0 - - 10 - - - -
29/06:30pm 27.5 N 8 11 1009.6 - 0.0 - - 10 - - - -
29/06:00pm 28.1 N 9 11 1009.4 - 0.0 - - 10 - - - -
29/05:30pm 28.4 N 10 13 1009.2 - 0.0 - - 10 - - - -
29/05:00pm 29.2 N 11 14 1009.0 - 0.0 - - 10 - - - -
29/04:30pm 29.1 N 11 14 1008.9 - 0.0 - - 10 - - - -
29/04:00pm 29.4 N 11 15 1009.0 - 0.0 - - 10 - - - -
29/03:30pm 30.1 N 11 14 1009.2 - 0.0 - - 10 - - - -
29/03:00pm 30.3 N 12 18 1009.3 - 0.0 - - 10 - - - -
29/02:30pm 30.0 N 12 16 1009.6 - 0.0 - - 10 - - - -
29/02:00pm 29.8 N 13 18 1009.7 - 0.0 - - 10 - - - -
29/01:30pm 30.9 N 12 16 1009.9 - 0.0 - - 10 - - - -
29/01:00pm 30.6 N 14 17 1010.3 - 0.0 - - 10 - - - -
29/12:30pm 29.7 N 13 16 1010.8 - 0.0 - - 10 - - - -
29/12:00pm 29.9 N 12 16 1011.3 - 0.0 - - 10 - - - -
29/11:30am 30.2 NE 7 12 1011.8 - 0.0 - - 10 - - - -
29/11:00am 30.2 ENE 8 13 1012.2 - 0.0 - - 10 - - - -
29/10:30am 29.9 ENE 7 13 1012.4 - 0.0 - Partly cloudy 10 - - - -
29/10:00am 28.7 NNE 7 13 1012.7 - 0.0 - Partly cloudy 10 - - - -
29/09:30am 28.4 NE 9 13 1012.7 - 0.0 - Partly cloudy 10 - - - -
29/09:00am 29.1 NE 7 10 1012.5 - 0.0 - - 10 - - - -
29/08:30am 27.5 ENE 6 10 1012.4 - 0.0 - - 10 - - - -
29/08:00am 26.6 E 5 8 1012.2 - 0.0 - - 10 - - - -
29/07:30am 25.1 SE 6 7 1012.1 - 0.0 - - 10 - - - -
29/07:00am 23.1 S 4 5 1011.8 - 0.0 - - 10 - - - -
29/06:30am 21.3 S 4 5 1011.6 - 0.0 - - 10 - - - -
29/06:00am 20.7 SSE 4 5 1011.3 - 0.0 - - 10 - - - -
29/05:30am 21.2 SSE 4 5 1011.0 - 0.0 - - 10 - - - -
29/05:00am 21.6 SSE 4 5 1010.9 - 0.0 - - 10 - - - -

Other Formats:

Comma delimited format used in spreadsheet applications
http://www.bom.gov.au/fwo/IDD60701/IDD60701.95142.axf

JavaScript Object Notation format (JSON) in row-major order
http://www.bom.gov.au/fwo/IDD60701/IDD60701.95142.json